x

West Orca Bay - 8nm Nw Of Hinchinbrook Is , Ak (46060) Wave Buoy

1:50pm - Sat 23rd Sep 2017 All times are AKDT. -8 hours from GMT.

  • Sig Wave height 3.0ft
  • Swell Direction
  • Peak Period 4s
  • Average Period 4s
  • Wind
    16mph, 20mph gusts
  • Sea Temp 53°f
  • Air Temp 53°f
  • Sea Pressure 1005.2mb
  • West Orca Bay - 8nm Nw Of Hinchinbrook  Is , Ak
  • West Orca Bay - 8nm Nw Of Hinchinbrook  Is , Ak

More Historic Weather Station data

Upgrade to MSW Pro to gain access to the past 30 days of data for over 8000 Wavebouys and Weather Stations around the globe.

Join

Comparision Forecast

View Surf forecast
   
Sat 09/23 1:50pm 3ft 4s 4s 16 20 mph 1005.2mb 53f 53f
12:50pm 2.5ft 4s 4s 18 22 mph 1005.4mb 53f 54f
11:50am 2.5ft 4s 4s 18 22 mph 1005.8mb 53f 54f
10:50am 2.5ft 4s 4s 16 22 mph 1006.5mb 53f 53f
9:50am 3ft 4s 4s 18 25 mph 1006.6mb 53f 53f
8:50am 3ft 4s 4s 25 29 mph 1006.4mb 53f 52f
7:50am 2.5ft 4s 4s 25 27 mph 1006.9mb 53f 52f
6:50am 2.5ft 4s 4s 22 27 mph 1007.2mb 53f 51f
5:50am 2.5ft 8s 4s 22 29 mph 1007.5mb 53f 51f
4:50am 2.5ft 10s 4s 16 20 mph 1007.8mb 53f 52f
3:50am 2.5ft 8s 4s 16 18 mph 1008mb 53f 52f
2:50am 2.5ft 9s 4s 16 20 mph 1008.2mb 53f 52f
1:50am 2.5ft 9s 4s 16 18 mph 1008.4mb 53f 52f
12:50am 2.5ft 9s 4s 7 9 mph 1008.9mb 53f 52f
Fri 09/22 11:50pm 2ft 3s 4s 7 11 mph 1009.1mb 53f 52f
10:50pm 2.5ft 9s 4s 9 11 mph 1008.9mb 53f 52f
9:50pm 2.5ft 11s 4s 18 22 mph 1008.5mb 53f 52f
8:50pm 2ft 11s 4s 16 20 mph 1008.4mb 53f 52f
7:50pm 2ft 4s 4s 9 11 mph 1008mb 53f 52f
6:50pm 2.5ft 3s 4s 18 20 mph 1007.7mb 53f 52f
5:50pm 3.5ft 4s 4s 20 25 mph 1007.5mb 53f 52f
4:50pm 3.5ft 4s 4s 22 25 mph 1007.2mb 53f 51f
3:50pm 3ft 4s 4s 20 25 mph 1006.9mb 53f 52f
2:50pm 2.5ft 8s 4s 18 22 mph 1006.6mb 53f 52f
1:50pm 2.5ft 8s 4s 18 22 mph 1006.5mb 53f 52f
12:50pm 2.5ft 7s 4s 11 13 mph 1006.5mb 53f 53f
11:50am 2.5ft 8s 4s 11 13 mph 1006.4mb 52f 53f
10:50am 3ft 4s 4s 16 20 mph 1005.9mb 52f 52f
9:50am 3ft 4s 4s 16 20 mph 1005.6mb 52f 52f
8:50am 3.5ft 5s 4s 25 34 mph 1004.4mb 51f 51f
7:50am 3.5ft 4s 4s 25 29 mph 1004.3mb 51f 51f
6:50am 3.5ft 4s 4s 25 31 mph 1004.4mb 51f 52f
5:50am 3ft 4s 4s 25 31 mph 1004.7mb 51f 52f
4:50am 2.5ft 4s  -  20 25 mph 1005.3mb 51f 52f
3:50am 2ft 8s 4s 9 13 mph 1005.6mb 51f 50f
2:50am 2.5ft 8s 5s 13 16 mph 1005.9mb 51f 49f
1:50am 2.5ft 7s 5s 13 16 mph 1006.5mb 51f 49f
12:50am 2.5ft 8s 4s 16 18 mph 1007.3mb 51f 48f
Thu 09/21 11:50pm 2.5ft 7s 4s 16 18 mph 1007.8mb 51f 49f
10:50pm 2.5ft 7s 5s 13 18 mph 1008mb 50f 48f
9:50pm 2.5ft 8s 5s 13 16 mph 1008.4mb 51f 49f
8:50pm 2.5ft 8s  -  9 13 mph 1008.8mb 51f 50f
7:50pm 2.5ft 7s 4s 13 16 mph 1008.8mb 51f 49f
6:50pm 2.5ft 4s 4s 16 18 mph 1009.3mb 51f 49f
5:50pm 3.5ft 4s 4s 25 27 mph 1009.2mb 51f 49f
4:50pm 3ft 4s  -  20 25 mph 1010.3mb 51f 49f
3:50pm 3ft 4s 4s 22 27 mph 1010.3mb 51f 50f
2:50pm 2.5ft 4s 4s 18 22 mph 1011.1mb 51f 49f
1:50pm 2.5ft 4s 4s 18 22 mph 1011.6mb 51f 49f
12:50pm 2.5ft 4s 3s 25 29 mph 1011.8mb 51f 49f
11:50am 2.5ft 4s 3s 22 27 mph 1012.5mb 52f 50f
10:50am 2.5ft 4s 4s 20 25 mph 1012.9mb 51f 50f
9:50am 2.5ft 4s 3s 20 27 mph 1013.4mb 51f 50f
8:50am 1.6ft 3s 3s 18 22 mph 1013.8mb 51f 51f
7:50am 1.3ft 3s 3s 16 18 mph 1014.5mb 52f 51f
6:50am 1ft 3s 3s 16 18 mph 1015.2mb 52f 51f
5:50am 1ft 3s 3s 11 13 mph 1015.8mb 51f 51f
4:50am 1ft 8s 4s 13 16 mph 1016.1mb 52f 51f
3:50am 1ft 8s 4s 7 9 mph 1016.6mb 52f 51f
2:50am 1ft 6s 4s 9 9 mph 1016.5mb 53f 51f
1:50am 0.7ft  -  5s 11 13 mph 1017mb 53f 51f
12:50am 0.7ft  -  5s 9 9 mph 1017.4mb 53f 51f
Wed 09/20 11:50pm 0.7ft  -  5s 7 9 mph 1017.3mb 53f 51f
10:50pm 0.7ft  -  5s 4 4 mph 1017.7mb 53f 51f
9:50pm 0.7ft  -  5s 2 2 mph 1017.9mb 54f 52f
8:50pm 0.7ft  -  5s 2 2 mph 1018.3mb 53f 52f
7:50pm 0.7ft  -  5s 2 2 mph 1018.3mb 53f 53f
6:50pm 0.7ft  -  6s 2 2 mph 1018.1mb 54f 53f
5:50pm 0.7ft  -  6s 2 2 mph 1018mb 54f 53f
4:50pm 0.7ft  -  6s 2 4 mph 1018.1mb 54f 53f
3:50pm 0.7ft  -  6s 4 4 mph 1018mb 54f 53f
2:50pm 0.7ft  -  5s  -  2 mph 1017.9mb 54f 55f
1:50pm 0.7ft  -  6s  -  2 mph 1017.9mb 54f 54f
12:50pm 0.7ft  -  6s 2 2 mph 1018.1mb 53f 52f
11:50am 0.7ft  -  5s  -  0 mph 1018mb 52f 52f
10:50am 0.7ft  -  5s 4 7 mph 1018mb 52f 51f
9:50am 0.7ft  -  5s 4 4 mph 1018.2mb 52f 51f
8:50am 0.7ft  -  6s 2 4 mph 1018.5mb 52f 51f
7:50am 0.7ft  -  5s 2 4 mph 1018mb 52f 51f
6:50am 0.7ft  -  4s 4 4 mph 1017.8mb 52f 51f
5:50am 0.7ft  -  5s 2 2 mph 1017.1mb 52f 51f
4:50am 0.7ft  -  4s 2 4 mph 1017mb 52f 50f
3:50am 1ft 8s 4s 4 4 mph 1017.1mb 52f 51f
2:50am 1ft 3s 4s 4 7 mph 1017.1mb 52f 52f
1:50am 1ft 8s 4s 9 11 mph 1016.5mb 53f 53f
12:50am 1ft 7s 4s 7 9 mph 1015.7mb 52f 53f
Tue 09/19 11:50pm 1ft 8s 4s 4 7 mph 1015.7mb 53f 54f